Grandview on Hudson, New York
Current Conditions -  °F | °C
As of 11:56 AM on Thursday 23 Oct 2014 (Local Time) from KHPN Reporting Station
Overcast Overcast  
Wind Chill: 42°   Ceiling: 1400
Heat Index: 49°   Visibility: 10mi
Dew Point: 45°   Wind: 18mph
Humidity: 86%   Direction: 340°NNW
Pressure: 29.7"   Gusts: 24mph
Location:  41.0938°N, 73.9254°W
Report Text: KHPN 231556Z 34016G21KT 10SM BKN014 OVC040 09/07 A2970 RMK AO2 RAE09B33E53 SLP060 P0001 T00940072
Loading
Personal Weather Stations






























Interactive Weather Map
Tropical Storm Tracking
New forecast layout! Learn more

10-Day Weather Forecast

Advertisements
Track Severe Weather on mobile